Flight Track Log - Related Links

Times and Time Zones

All times are in EST time to prevent confusion due to time zone crossing. See the N400PU flight status page for this flight to view local times or setup timezone preferences in your user account.

Time Position Orientation Groundspeed Altitude Reporting Facility
EST Latitude Longitude Course Direction KTS MPH feet Rate Location/Type
Thu 12:54:59 PM 40.4592 -86.9831 349° North 199 229 4,700  Level Chicago Center
Thu 12:55:12 PM 40.4639 -86.9703 64° Northeast 201 231 5,000 2,000 Climbing Chicago Center
Thu 12:55:53 PM 40.4636 -86.9178 90° East 216 249 6,500 1,742 Climbing Chicago Center
Thu 12:56:14 PM 40.4664 -86.8928 82° East 210 242 6,800 1,229 Climbing Chicago Center
Thu 12:57:16 PM 40.4672 -86.7933 89° East 251 289 8,200 1,500 Climbing Chicago Center
Thu 12:58:18 PM 40.4708 -86.6778 88° East 302 348 9,900 1,790 Climbing Chicago Center
Thu 12:59:20 PM 40.4881 -86.5314 81° East 338 389 11,900 2,129 Climbing Chicago Center
Thu 01:00:22 PM 40.5097 -86.4067 77° East 348 400 14,300 2,177 Climbing Chicago Center
Thu 01:01:24 PM 40.5336 -86.2819 76° East 351 404 16,400 1,790 Climbing Chicago Center
Thu 01:02:26 PM 40.5550 -86.1653 76° East 339 390 18,000 1,296 Climbing Chicago Center
Thu 01:03:29 PM 40.5661 -86.0425 83° East 337 388 19,100 1,104 Climbing Chicago Center
Thu 01:04:31 PM 40.5800 -85.9122 82° East 352 405 20,300 1,210 Climbing Chicago Center
Thu 01:05:33 PM 40.5972 -85.7464 82° East 377 434 21,600 1,161 Climbing Chicago Center
Thu 01:06:35 PM 40.6114 -85.6042 82° East 387 445 22,700 1,016 Climbing Chicago Center
Thu 01:07:37 PM 40.6258 -85.4600 82° East 396 456 23,700 968 Climbing Chicago Center
Thu 01:08:39 PM 40.6411 -85.3128 82° East 404 465 24,700 1,016 Climbing Chicago Center
Thu 01:09:41 PM 40.6536 -85.1619 84° East 412 474 25,800 1,016 Climbing Chicago Center
Thu 01:10:43 PM 40.6664 -85.0100 84° East 421 484 26,800 1,065 Climbing Chicago Center
Thu 01:11:45 PM 40.6842 -84.8281 83° East 421 484 28,000 1,113 Climbing Chicago Center
Thu 01:12:47 PM 40.6983 -84.6728 83° East 425 489 29,100 968 Climbing Chicago Center
Thu 01:13:49 PM 40.7122 -84.5200 83° East 425 489 30,000 823 Climbing Chicago Center
Thu 01:14:51 PM 40.7264 -84.3606 83° East 434 499 30,800 726 Climbing Chicago Center
Thu 01:15:53 PM 40.7400 -84.1992 84° East 442 509 31,500 677 Climbing Chicago Center
Thu 01:16:55 PM 40.7578 -84.0003 83° East 454 522 32,200 581 Climbing Chicago Center
Thu 01:17:57 PM 40.7711 -83.8447 83° East 465 535 32,700 484 Climbing Indianapolis Center
Thu 01:18:59 PM 40.7844 -83.6700 84° East 475 547 33,200 528 Climbing Indianapolis Center
Thu 01:20:02 PM 40.8011 -83.4750 83° East 488 562 33,800 576 Climbing Indianapolis Center
Thu 01:21:04 PM 40.8164 -83.2919 84° East 497 572 34,400 677 Climbing Indianapolis Center
Thu 01:22:06 PM 40.8303 -83.1064 84° East 502 578 35,200 919 Climbing Indianapolis Center
Thu 01:23:08 PM 40.8467 -82.8897 84° East 505 581 36,300 871 Climbing Indianapolis Center
Thu 01:24:10 PM 40.8608 -82.7047 84° East 503 579 37,000 339 Climbing Indianapolis Center
Thu 01:25:12 PM 40.8708 -82.5161 86° East 509 586 37,000  Level Indianapolis Center
Thu 01:26:14 PM 40.8658 -82.3189 92° East 528 608 37,000  Level Indianapolis Center
Thu 01:27:12 PM 40.8636 -82.1206 91° East 537 618 37,000  Level Cleveland Center
Thu 01:28:14 PM 40.8617 -81.9256 91° East 533 613 37,000  Level Cleveland Center
Thu 01:29:16 PM 40.8586 -81.7306 91° East 532 612 37,000  Level Cleveland Center
Thu 01:30:18 PM 40.8558 -81.5353 91° East 532 612 37,000 -339 Level Cleveland Center
Thu 01:31:20 PM 40.8517 -81.3072 91° East 533 613 36,300 -823 Descending Cleveland Center
Thu 01:32:22 PM 40.8519 -81.1178 90° East 519 597 35,300 -1,065 Descending Cleveland Center
Thu 01:33:24 PM 40.8708 -80.9592 81° East 503 579 34,100 -2,032 Descending Cleveland Center
Thu 01:34:26 PM 40.9008 -80.7447 79° East 495 570 31,100 -2,640 Descending Cleveland Center
Thu 01:35:29 PM 40.9253 -80.5636 80° East 497 572 28,600 -2,400 Descending Cleveland Center
Thu 01:36:31 PM 40.9186 -80.3781 93° East 510 587 26,100 -2,129 Descending Cleveland Center
Thu 01:37:33 PM 40.9136 -80.1942 92° East 499 574 24,200 -1,403 Descending Cleveland Center
Thu 01:38:35 PM 40.9114 -80.0142 91° East 491 565 23,200 -968 Descending Cleveland Center
Thu 01:39:37 PM 40.9081 -79.8333 91° East 489 563 22,200 -968 Descending Cleveland Center
Thu 01:40:39 PM 40.9056 -79.6550 91° East 486 559 21,200 -1,355 Descending Cleveland Center
Thu 01:41:41 PM 40.9014 -79.4508 91° East 466 536 19,400 -1,597 Descending Cleveland Center
Thu 01:42:43 PM 40.8967 -79.2847 92° East 455 524 17,900 -1,500 Descending Cleveland Center
Thu 01:43:45 PM 40.8919 -79.1211 92° East 447 514 16,300 -1,694 Descending Cleveland Center
Thu 01:44:47 PM 40.8881 -78.9653 92° East 428 493 14,400 -1,500 Descending Cleveland Center
Thu 01:45:49 PM 40.8828 -78.8133 93° East 416 479 13,200 -1,065 Descending Cleveland Center
Thu 01:46:51 PM 40.8786 -78.6608 92° East 416 479 12,200 -1,104 Descending Cleveland Center
Thu 01:47:54 PM 40.8722 -78.4803 93° East 412 474 10,900 -1,104 Descending Cleveland Center
Thu 01:48:56 PM 40.8667 -78.3494 93° East 361 415 9,900 -919 Descending Cleveland Center
Thu 01:49:58 PM 40.8744 -78.2228 85° East 329 379 9,000 -484 Descending Cleveland Center
Thu 01:51:00 PM 40.9039 -78.1133 70° East 322 371 8,900 -48 Descending Cleveland Center
Thu 01:52:02 PM 40.9336 -78.0008 71° East 326 375 8,900 -581 Level Cleveland Center
Thu 01:53:04 PM 40.9639 -77.8956 69° East 313 360 7,700 -1,461 Descending Cleveland Center
Thu 01:53:57 PM 40.9944 -77.7983 67° East 300 345 6,100 -1,434 Descending New York Center
Thu 01:54:57 PM 41.0022 -77.7028 84° East 280 322 5,000 -600 Descending New York Center
Thu 01:55:57 PM 40.9758 -77.6533 125° Southeast 176 203 4,900 -400 Descending New York Center
Thu 01:56:57 PM 40.9406 -77.6883 217° Southwest 95 109 4,200 -800 Descending New York Center
Thu 01:57:57 PM 40.9169 -77.7356 237° Southwest 109 125 3,300 -850 Descending New York Center
Thu 01:58:57 PM 40.8919 -77.7714 227° Southwest 130 150 2,500 -600 Descending New York Center
Thu 01:59:57 PM 40.8733 -77.8050 234° Southwest 130 150 2,100 -400 Descending New York Center

Login

Don't have an account? Register now (free) for customized features, flight alerts, and more!